sensor_id;sensor_type;location;lat;lon;timestamp;P1;P2;P0
72329;PMS5003;69154;52.076;5.110;2023-06-10T00:01:19;29;28;
72329;PMS5003;69154;52.076;5.110;2023-06-10T00:03:45;25;25;
72329;PMS5003;69154;52.076;5.110;2023-06-10T00:06:10;28;28;
72329;PMS5003;69154;52.076;5.110;2023-06-10T00:08:35;25;24;
72329;PMS5003;69154;52.076;5.110;2023-06-10T00:11:01;24;24;
72329;PMS5003;69154;52.076;5.110;2023-06-10T00:13:26;25;24;
72329;PMS5003;69154;52.076;5.110;2023-06-10T00:15:57;22;21;
72329;PMS5003;69154;52.076;5.110;2023-06-10T00:18:18;25;23;
72329;PMS5003;69154;52.076;5.110;2023-06-10T00:20:43;23;23;
72329;PMS5003;69154;52.076;5.110;2023-06-10T00:23:09;26;25;
72329;PMS5003;69154;52.076;5.110;2023-06-10T00:25:34;22;21;
72329;PMS5003;69154;52.076;5.110;2023-06-10T00:28:00;27;26;
72329;PMS5003;69154;52.076;5.110;2023-06-10T00:30:25;26;25;
72329;PMS5003;69154;52.076;5.110;2023-06-10T00:32:50;21;20;
72329;PMS5003;69154;52.076;5.110;2023-06-10T00:35:16;23;23;
72329;PMS5003;69154;52.076;5.110;2023-06-10T00:37:42;26;25;
72329;PMS5003;69154;52.076;5.110;2023-06-10T00:40:08;27;27;
72329;PMS5003;69154;52.076;5.110;2023-06-10T00:42:33;23;22;
72329;PMS5003;69154;52.076;5.110;2023-06-10T00:44:59;21;21;
72329;PMS5003;69154;52.076;5.110;2023-06-10T00:47:25;25;24;
72329;PMS5003;69154;52.076;5.110;2023-06-10T00:49:49;25;24;
72329;PMS5003;69154;52.076;5.110;2023-06-10T00:52:15;24;23;
72329;PMS5003;69154;52.076;5.110;2023-06-10T00:54:40;24;23;
72329;PMS5003;69154;52.076;5.110;2023-06-10T00:57:06;20;20;
72329;PMS5003;69154;52.076;5.110;2023-06-10T00:59:32;20;20;
72329;PMS5003;69154;52.076;5.110;2023-06-10T01:01:58;17;17;
72329;PMS5003;69154;52.076;5.110;2023-06-10T01:04:23;21;21;
72329;PMS5003;69154;52.076;5.110;2023-06-10T01:06:50;22;21;
72329;PMS5003;69154;52.076;5.110;2023-06-10T01:09:18;19;19;
72329;PMS5003;69154;52.076;5.110;2023-06-10T01:11:43;16;15;
72329;PMS5003;69154;52.076;5.110;2023-06-10T01:14:06;22;21;
72329;PMS5003;69154;52.076;5.110;2023-06-10T01:16:32;22;20;
72329;PMS5003;69154;52.076;5.110;2023-06-10T01:18:58;18;18;
72329;PMS5003;69154;52.076;5.110;2023-06-10T01:21:24;20;20;
72329;PMS5003;69154;52.076;5.110;2023-06-10T01:23:49;19;19;
72329;PMS5003;69154;52.076;5.110;2023-06-10T01:26:14;17;17;
72329;PMS5003;69154;52.076;5.110;2023-06-10T01:28:42;18;18;
72329;PMS5003;69154;52.076;5.110;2023-06-10T01:31:07;19;19;
72329;PMS5003;69154;52.076;5.110;2023-06-10T01:33:33;16;16;
72329;PMS5003;69154;52.076;5.110;2023-06-10T01:35:57;20;19;
72329;PMS5003;69154;52.076;5.110;2023-06-10T01:38:23;18;18;
72329;PMS5003;69154;52.076;5.110;2023-06-10T01:40:49;19;18;
72329;PMS5003;69154;52.076;5.110;2023-06-10T01:43:14;19;18;
72329;PMS5003;69154;52.076;5.110;2023-06-10T01:45:39;18;18;
72329;PMS5003;69154;52.076;5.110;2023-06-10T01:48:05;18;18;
72329;PMS5003;69154;52.076;5.110;2023-06-10T01:50:35;21;20;
72329;PMS5003;69154;52.076;5.110;2023-06-10T01:52:56;18;18;
72329;PMS5003;69154;52.076;5.110;2023-06-10T01:55:21;20;20;
72329;PMS5003;69154;52.076;5.110;2023-06-10T01:57:46;18;18;
72329;PMS5003;69154;52.076;5.110;2023-06-10T02:00:12;20;20;
72329;PMS5003;69154;52.076;5.110;2023-06-10T02:02:37;16;16;
72329;PMS5003;69154;52.076;5.110;2023-06-10T02:05:03;17;16;
72329;PMS5003;69154;52.076;5.110;2023-06-10T02:07:28;17;17;
72329;PMS5003;69154;52.076;5.110;2023-06-10T02:09:54;20;18;
72329;PMS5003;69154;52.076;5.110;2023-06-10T02:12:20;18;17;
72329;PMS5003;69154;52.076;5.110;2023-06-10T02:14:45;16;15;
72329;PMS5003;69154;52.076;5.110;2023-06-10T02:17:10;22;19;
72329;PMS5003;69154;52.076;5.110;2023-06-10T02:19:35;17;17;
72329;PMS5003;69154;52.076;5.110;2023-06-10T02:22:01;16;15;
72329;PMS5003;69154;52.076;5.110;2023-06-10T02:24:27;17;17;
72329;PMS5003;69154;52.076;5.110;2023-06-10T02:26:52;16;16;
72329;PMS5003;69154;52.076;5.110;2023-06-10T02:29:17;19;17;
72329;PMS5003;69154;52.076;5.110;2023-06-10T02:31:42;17;16;
72329;PMS5003;69154;52.076;5.110;2023-06-10T02:34:07;19;18;
72329;PMS5003;69154;52.076;5.110;2023-06-10T02:36:32;18;18;
72329;PMS5003;69154;52.076;5.110;2023-06-10T02:38:57;17;17;
72329;PMS5003;69154;52.076;5.110;2023-06-10T02:41:22;17;16;
72329;PMS5003;69154;52.076;5.110;2023-06-10T02:43:48;18;16;
72329;PMS5003;69154;52.076;5.110;2023-06-10T02:46:14;16;16;
72329;PMS5003;69154;52.076;5.110;2023-06-10T02:48:41;17;17;
72329;PMS5003;69154;52.076;5.110;2023-06-10T02:51:04;16;16;
72329;PMS5003;69154;52.076;5.110;2023-06-10T02:53:30;17;16;
72329;PMS5003;69154;52.076;5.110;2023-06-10T02:55:55;16;16;
72329;PMS5003;69154;52.076;5.110;2023-06-10T02:58:21;17;16;
72329;PMS5003;69154;52.076;5.110;2023-06-10T03:00:47;19;18;
72329;PMS5003;69154;52.076;5.110;2023-06-10T03:03:12;21;19;
72329;PMS5003;69154;52.076;5.110;2023-06-10T03:05:38;17;16;
72329;PMS5003;69154;52.076;5.110;2023-06-10T03:08:03;16;16;
72329;PMS5003;69154;52.076;5.110;2023-06-10T03:10:28;16;15;
72329;PMS5003;69154;52.076;5.110;2023-06-10T03:12:54;15;14;
72329;PMS5003;69154;52.076;5.110;2023-06-10T03:15:19;13;13;
72329;PMS5003;69154;52.076;5.110;2023-06-10T03:17:44;15;14;
72329;PMS5003;69154;52.076;5.110;2023-06-10T03:20:11;18;17;
72329;PMS5003;69154;52.076;5.110;2023-06-10T03:22:34;17;16;
72329;PMS5003;69154;52.076;5.110;2023-06-10T03:25:00;17;16;
72329;PMS5003;69154;52.076;5.110;2023-06-10T03:27:26;18;18;
72329;PMS5003;69154;52.076;5.110;2023-06-10T03:29:51;20;20;
72329;PMS5003;69154;52.076;5.110;2023-06-10T03:32:16;21;21;
72329;PMS5003;69154;52.076;5.110;2023-06-10T03:34:42;15;15;
72329;PMS5003;69154;52.076;5.110;2023-06-10T03:37:07;17;16;
72329;PMS5003;69154;52.076;5.110;2023-06-10T03:39:32;17;17;
72329;PMS5003;69154;52.076;5.110;2023-06-10T03:41:57;20;18;
72329;PMS5003;69154;52.076;5.110;2023-06-10T03:44:23;16;16;
72329;PMS5003;69154;52.076;5.110;2023-06-10T03:46:47;19;16;
72329;PMS5003;69154;52.076;5.110;2023-06-10T03:49:12;17;16;
72329;PMS5003;69154;52.076;5.110;2023-06-10T03:51:38;16;16;
72329;PMS5003;69154;52.076;5.110;2023-06-10T03:54:04;16;16;
72329;PMS5003;69154;52.076;5.110;2023-06-10T03:56:29;15;15;
72329;PMS5003;69154;52.076;5.110;2023-06-10T03:58:54;17;17;
72329;PMS5003;69154;52.076;5.110;2023-06-10T04:01:19;17;17;
72329;PMS5003;69154;52.076;5.110;2023-06-10T04:03:44;18;18;
72329;PMS5003;69154;52.076;5.110;2023-06-10T04:06:10;18;18;
72329;PMS5003;69154;52.076;5.110;2023-06-10T04:08:34;16;15;
72329;PMS5003;69154;52.076;5.110;2023-06-10T04:11:00;18;16;
72329;PMS5003;69154;52.076;5.110;2023-06-10T04:13:25;17;15;
72329;PMS5003;69154;52.076;5.110;2023-06-10T04:15:50;16;15;
72329;PMS5003;69154;52.076;5.110;2023-06-10T04:18:15;17;16;
72329;PMS5003;69154;52.076;5.110;2023-06-10T04:20:40;15;14;
72329;PMS5003;69154;52.076;5.110;2023-06-10T04:23:05;18;15;
72329;PMS5003;69154;52.076;5.110;2023-06-10T04:25:30;18;18;
72329;PMS5003;69154;52.076;5.110;2023-06-10T04:27:55;15;15;
72329;PMS5003;69154;52.076;5.110;2023-06-10T04:30:21;18;16;
72329;PMS5003;69154;52.076;5.110;2023-06-10T04:32:46;20;19;
72329;PMS5003;69154;52.076;5.110;2023-06-10T04:35:11;16;15;
72329;PMS5003;69154;52.076;5.110;2023-06-10T04:37:36;16;16;
72329;PMS5003;69154;52.076;5.110;2023-06-10T04:40:01;16;15;
72329;PMS5003;69154;52.076;5.110;2023-06-10T04:42:26;15;15;
72329;PMS5003;69154;52.076;5.110;2023-06-10T04:44:52;16;16;
72329;PMS5003;69154;52.076;5.110;2023-06-10T04:47:17;19;17;
72329;PMS5003;69154;52.076;5.110;2023-06-10T04:49:42;16;16;
72329;PMS5003;69154;52.076;5.110;2023-06-10T04:52:08;19;19;
72329;PMS5003;69154;52.076;5.110;2023-06-10T04:54:34;18;17;
72329;PMS5003;69154;52.076;5.110;2023-06-10T04:56:59;16;16;
72329;PMS5003;69154;52.076;5.110;2023-06-10T04:59:24;18;17;
72329;PMS5003;69154;52.076;5.110;2023-06-10T05:01:50;16;15;
72329;PMS5003;69154;52.076;5.110;2023-06-10T05:04:15;20;19;
72329;PMS5003;69154;52.076;5.110;2023-06-10T05:06:41;16;16;
72329;PMS5003;69154;52.076;5.110;2023-06-10T05:09:06;17;16;
72329;PMS5003;69154;52.076;5.110;2023-06-10T05:11:32;16;16;
72329;PMS5003;69154;52.076;5.110;2023-06-10T05:13:58;19;18;
72329;PMS5003;69154;52.076;5.110;2023-06-10T05:16:23;15;15;
72329;PMS5003;69154;52.076;5.110;2023-06-10T05:18:48;17;17;
72329;PMS5003;69154;52.076;5.110;2023-06-10T05:21:14;17;16;
72329;PMS5003;69154;52.076;5.110;2023-06-10T05:23:39;18;16;
72329;PMS5003;69154;52.076;5.110;2023-06-10T05:26:05;17;16;
72329;PMS5003;69154;52.076;5.110;2023-06-10T05:28:31;18;18;
72329;PMS5003;69154;52.076;5.110;2023-06-10T05:30:56;18;17;
72329;PMS5003;69154;52.076;5.110;2023-06-10T05:33:22;18;18;
72329;PMS5003;69154;52.076;5.110;2023-06-10T05:35:48;17;17;
72329;PMS5003;69154;52.076;5.110;2023-06-10T05:38:14;15;15;
72329;PMS5003;69154;52.076;5.110;2023-06-10T05:40:39;20;20;
72329;PMS5003;69154;52.076;5.110;2023-06-10T05:43:04;17;15;
72329;PMS5003;69154;52.076;5.110;2023-06-10T05:45:30;18;17;
72329;PMS5003;69154;52.076;5.110;2023-06-10T05:47:56;20;19;
72329;PMS5003;69154;52.076;5.110;2023-06-10T05:50:23;17;17;
72329;PMS5003;69154;52.076;5.110;2023-06-10T05:52:47;18;18;
72329;PMS5003;69154;52.076;5.110;2023-06-10T05:55:12;16;15;
72329;PMS5003;69154;52.076;5.110;2023-06-10T05:57:38;17;17;
72329;PMS5003;69154;52.076;5.110;2023-06-10T06:00:04;19;18;
72329;PMS5003;69154;52.076;5.110;2023-06-10T06:02:29;21;18;
72329;PMS5003;69154;52.076;5.110;2023-06-10T06:04:55;17;16;
72329;PMS5003;69154;52.076;5.110;2023-06-10T06:07:20;16;16;
72329;PMS5003;69154;52.076;5.110;2023-06-10T06:09:46;15;15;
72329;PMS5003;69154;52.076;5.110;2023-06-10T06:12:12;18;18;
72329;PMS5003;69154;52.076;5.110;2023-06-10T06:14:37;16;16;
72329;PMS5003;69154;52.076;5.110;2023-06-10T06:17:03;17;14;
72329;PMS5003;69154;52.076;5.110;2023-06-10T06:19:28;19;18;
72329;PMS5003;69154;52.076;5.110;2023-06-10T06:21:54;20;20;
72329;PMS5003;69154;52.076;5.110;2023-06-10T06:24:20;21;20;
72329;PMS5003;69154;52.076;5.110;2023-06-10T06:26:45;19;19;
72329;PMS5003;69154;52.076;5.110;2023-06-10T06:29:11;15;15;
72329;PMS5003;69154;52.076;5.110;2023-06-10T06:31:37;17;17;
72329;PMS5003;69154;52.076;5.110;2023-06-10T06:34:02;17;17;
72329;PMS5003;69154;52.076;5.110;2023-06-10T06:36:28;20;18;
72329;PMS5003;69154;52.076;5.110;2023-06-10T06:38:54;19;19;
72329;PMS5003;69154;52.076;5.110;2023-06-10T06:41:19;16;15;
72329;PMS5003;69154;52.076;5.110;2023-06-10T06:43:44;17;16;
72329;PMS5003;69154;52.076;5.110;2023-06-10T06:46:10;17;17;
72329;PMS5003;69154;52.076;5.110;2023-06-10T06:48:35;20;19;
72329;PMS5003;69154;52.076;5.110;2023-06-10T06:51:01;17;16;
72329;PMS5003;69154;52.076;5.110;2023-06-10T06:53:27;18;17;
72329;PMS5003;69154;52.076;5.110;2023-06-10T06:55:53;20;19;
72329;PMS5003;69154;52.076;5.110;2023-06-10T06:58:18;18;18;
72329;PMS5003;69154;52.076;5.110;2023-06-10T07:00:44;16;15;
72329;PMS5003;69154;52.076;5.110;2023-06-10T07:03:10;17;16;
72329;PMS5003;69154;52.076;5.110;2023-06-10T07:05:35;19;18;
72329;PMS5003;69154;52.076;5.110;2023-06-10T07:08:00;18;17;
72329;PMS5003;69154;52.076;5.110;2023-06-10T07:10:26;16;16;
72329;PMS5003;69154;52.076;5.110;2023-06-10T07:12:52;17;17;
72329;PMS5003;69154;52.076;5.110;2023-06-10T07:15:17;18;18;
72329;PMS5003;69154;52.076;5.110;2023-06-10T07:17:43;18;18;
72329;PMS5003;69154;52.076;5.110;2023-06-10T07:20:10;15;15;
72329;PMS5003;69154;52.076;5.110;2023-06-10T07:22:34;19;18;
72329;PMS5003;69154;52.076;5.110;2023-06-10T07:25:00;16;15;
72329;PMS5003;69154;52.076;5.110;2023-06-10T07:27:26;18;16;
72329;PMS5003;69154;52.076;5.110;2023-06-10T07:29:52;17;17;
72329;PMS5003;69154;52.076;5.110;2023-06-10T07:32:17;17;17;
72329;PMS5003;69154;52.076;5.110;2023-06-10T07:34:43;19;17;
72329;PMS5003;69154;52.076;5.110;2023-06-10T07:37:08;19;17;
72329;PMS5003;69154;52.076;5.110;2023-06-10T07:39:34;18;18;
72329;PMS5003;69154;52.076;5.110;2023-06-10T07:41:59;20;20;
72329;PMS5003;69154;52.076;5.110;2023-06-10T07:44:25;17;17;
72329;PMS5003;69154;52.076;5.110;2023-06-10T07:46:51;17;16;
72329;PMS5003;69154;52.076;5.110;2023-06-10T07:49:16;16;16;
72329;PMS5003;69154;52.076;5.110;2023-06-10T07:51:42;19;18;
72329;PMS5003;69154;52.076;5.110;2023-06-10T07:54:07;21;16;
72329;PMS5003;69154;52.076;5.110;2023-06-10T07:56:33;16;16;
72329;PMS5003;69154;52.076;5.110;2023-06-10T07:58:58;17;17;
72329;PMS5003;69154;52.076;5.110;2023-06-10T08:01:24;17;17;
72329;PMS5003;69154;52.076;5.110;2023-06-10T08:03:49;19;18;
72329;PMS5003;69154;52.076;5.110;2023-06-10T08:06:15;21;20;
72329;PMS5003;69154;52.076;5.110;2023-06-10T08:08:40;18;18;
72329;PMS5003;69154;52.076;5.110;2023-06-10T08:11:06;18;17;
72329;PMS5003;69154;52.076;5.110;2023-06-10T08:13:31;19;18;
72329;PMS5003;69154;52.076;5.110;2023-06-10T08:15:57;20;19;
72329;PMS5003;69154;52.076;5.110;2023-06-10T08:18:23;16;16;
72329;PMS5003;69154;52.076;5.110;2023-06-10T08:20:48;19;18;
72329;PMS5003;69154;52.076;5.110;2023-06-10T08:23:14;18;18;
72329;PMS5003;69154;52.076;5.110;2023-06-10T08:25:39;20;19;
72329;PMS5003;69154;52.076;5.110;2023-06-10T08:28:05;17;17;
72329;PMS5003;69154;52.076;5.110;2023-06-10T08:30:31;16;16;
72329;PMS5003;69154;52.076;5.110;2023-06-10T08:32:56;19;18;
72329;PMS5003;69154;52.076;5.110;2023-06-10T08:35:22;16;16;
72329;PMS5003;69154;52.076;5.110;2023-06-10T08:37:47;19;19;
72329;PMS5003;69154;52.076;5.110;2023-06-10T08:40:12;19;19;
72329;PMS5003;69154;52.076;5.110;2023-06-10T08:42:39;22;22;
72329;PMS5003;69154;52.076;5.110;2023-06-10T08:45:03;16;15;
72329;PMS5003;69154;52.076;5.110;2023-06-10T08:47:29;18;18;
72329;PMS5003;69154;52.076;5.110;2023-06-10T08:49:54;16;16;
72329;PMS5003;69154;52.076;5.110;2023-06-10T08:52:20;17;17;
72329;PMS5003;69154;52.076;5.110;2023-06-10T08:54:46;18;17;
72329;PMS5003;69154;52.076;5.110;2023-06-10T08:57:11;18;17;
72329;PMS5003;69154;52.076;5.110;2023-06-10T08:59:36;19;19;
72329;PMS5003;69154;52.076;5.110;2023-06-10T09:02:02;20;17;
72329;PMS5003;69154;52.076;5.110;2023-06-10T09:04:27;20;20;
72329;PMS5003;69154;52.076;5.110;2023-06-10T09:06:52;16;16;
72329;PMS5003;69154;52.076;5.110;2023-06-10T09:09:18;20;20;
72329;PMS5003;69154;52.076;5.110;2023-06-10T09:11:43;19;19;
72329;PMS5003;69154;52.076;5.110;2023-06-10T09:14:09;20;19;
72329;PMS5003;69154;52.076;5.110;2023-06-10T09:16:34;18;17;
72329;PMS5003;69154;52.076;5.110;2023-06-10T09:18:59;21;21;
72329;PMS5003;69154;52.076;5.110;2023-06-10T09:21:25;21;20;
72329;PMS5003;69154;52.076;5.110;2023-06-10T09:23:51;20;20;
72329;PMS5003;69154;52.076;5.110;2023-06-10T09:26:16;18;17;
72329;PMS5003;69154;52.076;5.110;2023-06-10T09:28:42;18;17;
72329;PMS5003;69154;52.076;5.110;2023-06-10T09:31:07;15;15;
72329;PMS5003;69154;52.076;5.110;2023-06-10T09:33:33;19;18;
72329;PMS5003;69154;52.076;5.110;2023-06-10T09:35:59;17;16;
72329;PMS5003;69154;52.076;5.110;2023-06-10T09:38:28;17;16;
72329;PMS5003;69154;52.076;5.110;2023-06-10T09:40:50;15;15;
72329;PMS5003;69154;52.076;5.110;2023-06-10T09:43:14;16;15;
72329;PMS5003;69154;52.076;5.110;2023-06-10T09:45:40;15;15;
72329;PMS5003;69154;52.076;5.110;2023-06-10T09:48:05;17;15;
72329;PMS5003;69154;52.076;5.110;2023-06-10T09:50:32;14;14;
72329;PMS5003;69154;52.076;5.110;2023-06-10T09:52:56;15;14;
72329;PMS5003;69154;52.076;5.110;2023-06-10T09:55:26;18;17;
72329;PMS5003;69154;52.076;5.110;2023-06-10T09:57:48;12;12;
72329;PMS5003;69154;52.076;5.110;2023-06-10T10:00:13;18;16;
72329;PMS5003;69154;52.076;5.110;2023-06-10T10:02:43;14;14;
72329;PMS5003;69154;52.076;5.110;2023-06-10T10:05:02;15;15;
72329;PMS5003;69154;52.076;5.110;2023-06-10T10:07:27;18;18;
72329;PMS5003;69154;52.076;5.110;2023-06-10T10:09:53;13;13;
72329;PMS5003;69154;52.076;5.110;2023-06-10T10:12:18;14;13;
72329;PMS5003;69154;52.076;5.110;2023-06-10T10:14:45;13;12;
72329;PMS5003;69154;52.076;5.110;2023-06-10T10:17:09;16;16;
72329;PMS5003;69154;52.076;5.110;2023-06-10T10:19:35;15;15;
72329;PMS5003;69154;52.076;5.110;2023-06-10T10:22:01;17;17;
72329;PMS5003;69154;52.076;5.110;2023-06-10T10:24:26;13;13;
72329;PMS5003;69154;52.076;5.110;2023-06-10T10:26:50;12;12;
72329;PMS5003;69154;52.076;5.110;2023-06-10T10:29:16;15;15;
72329;PMS5003;69154;52.076;5.110;2023-06-10T10:31:41;15;15;
72329;PMS5003;69154;52.076;5.110;2023-06-10T10:34:07;14;14;
72329;PMS5003;69154;52.076;5.110;2023-06-10T10:36:32;14;14;
72329;PMS5003;69154;52.076;5.110;2023-06-10T10:38:57;15;14;
72329;PMS5003;69154;52.076;5.110;2023-06-10T10:41:23;16;16;
72329;PMS5003;69154;52.076;5.110;2023-06-10T10:43:48;17;17;
72329;PMS5003;69154;52.076;5.110;2023-06-10T10:46:14;16;16;
72329;PMS5003;69154;52.076;5.110;2023-06-10T10:48:38;15;14;
72329;PMS5003;69154;52.076;5.110;2023-06-10T10:51:04;15;15;
72329;PMS5003;69154;52.076;5.110;2023-06-10T10:53:29;16;16;
72329;PMS5003;69154;52.076;5.110;2023-06-10T10:55:58;19;19;
72329;PMS5003;69154;52.076;5.110;2023-06-10T10:58:23;14;14;
72329;PMS5003;69154;52.076;5.110;2023-06-10T11:00:45;14;14;
72329;PMS5003;69154;52.076;5.110;2023-06-10T11:03:13;17;17;
72329;PMS5003;69154;52.076;5.110;2023-06-10T11:05:37;18;17;
72329;PMS5003;69154;52.076;5.110;2023-06-10T11:08:01;15;15;
72329;PMS5003;69154;52.076;5.110;2023-06-10T11:10:30;17;17;
72329;PMS5003;69154;52.076;5.110;2023-06-10T11:12:52;16;16;
72329;PMS5003;69154;52.076;5.110;2023-06-10T11:15:18;17;17;
72329;PMS5003;69154;52.076;5.110;2023-06-10T11:18:06;17;17;
72329;PMS5003;69154;52.076;5.110;2023-06-10T11:20:09;18;16;
72329;PMS5003;69154;52.076;5.110;2023-06-10T11:22:42;17;17;
72329;PMS5003;69154;52.076;5.110;2023-06-10T11:24:58;15;15;
72329;PMS5003;69154;52.076;5.110;2023-06-10T11:27:24;17;17;
72329;PMS5003;69154;52.076;5.110;2023-06-10T11:29:57;20;20;
72329;PMS5003;69154;52.076;5.110;2023-06-10T11:32:14;17;17;
72329;PMS5003;69154;52.076;5.110;2023-06-10T11:34:39;18;18;
72329;PMS5003;69154;52.076;5.110;2023-06-10T11:37:05;18;18;
72329;PMS5003;69154;52.076;5.110;2023-06-10T11:39:30;17;17;
72329;PMS5003;69154;52.076;5.110;2023-06-10T11:41:56;14;14;
72329;PMS5003;69154;52.076;5.110;2023-06-10T11:44:21;17;17;
72329;PMS5003;69154;52.076;5.110;2023-06-10T11:46:47;19;18;
72329;PMS5003;69154;52.076;5.110;2023-06-10T11:49:14;17;17;
72329;PMS5003;69154;52.076;5.110;2023-06-10T11:51:38;17;17;
72329;PMS5003;69154;52.076;5.110;2023-06-10T11:54:03;15;15;
72329;PMS5003;69154;52.076;5.110;2023-06-10T11:56:29;18;17;
72329;PMS5003;69154;52.076;5.110;2023-06-10T11:58:54;16;16;
72329;PMS5003;69154;52.076;5.110;2023-06-10T12:01:19;17;17;
72329;PMS5003;69154;52.076;5.110;2023-06-10T12:03:45;18;18;
72329;PMS5003;69154;52.076;5.110;2023-06-10T12:06:10;17;16;
72329;PMS5003;69154;52.076;5.110;2023-06-10T12:08:40;16;16;
72329;PMS5003;69154;52.076;5.110;2023-06-10T12:11:01;17;16;
72329;PMS5003;69154;52.076;5.110;2023-06-10T12:13:27;17;17;
72329;PMS5003;69154;52.076;5.110;2023-06-10T12:15:52;17;17;
72329;PMS5003;69154;52.076;5.110;2023-06-10T12:18:18;18;17;
72329;PMS5003;69154;52.076;5.110;2023-06-10T12:20:43;18;17;
72329;PMS5003;69154;52.076;5.110;2023-06-10T12:23:08;15;15;
72329;PMS5003;69154;52.076;5.110;2023-06-10T12:25:33;19;19;
72329;PMS5003;69154;52.076;5.110;2023-06-10T12:27:58;19;19;
72329;PMS5003;69154;52.076;5.110;2023-06-10T12:30:24;16;16;
72329;PMS5003;69154;52.076;5.110;2023-06-10T12:32:49;14;14;
72329;PMS5003;69154;52.076;5.110;2023-06-10T12:35:16;16;16;
72329;PMS5003;69154;52.076;5.110;2023-06-10T12:37:40;16;16;
72329;PMS5003;69154;52.076;5.110;2023-06-10T12:40:05;17;16;
72329;PMS5003;69154;52.076;5.110;2023-06-10T12:42:30;18;18;
72329;PMS5003;69154;52.076;5.110;2023-06-10T12:44:55;16;16;
72329;PMS5003;69154;52.076;5.110;2023-06-10T12:47:29;14;14;
72329;PMS5003;69154;52.076;5.110;2023-06-10T12:49:46;20;20;
72329;PMS5003;69154;52.076;5.110;2023-06-10T12:52:12;19;18;
72329;PMS5003;69154;52.076;5.110;2023-06-10T12:54:37;15;15;
72329;PMS5003;69154;52.076;5.110;2023-06-10T12:57:02;16;15;
72329;PMS5003;69154;52.076;5.110;2023-06-10T12:59:27;18;18;
72329;PMS5003;69154;52.076;5.110;2023-06-10T13:01:52;16;16;
72329;PMS5003;69154;52.076;5.110;2023-06-10T13:04:17;18;18;
72329;PMS5003;69154;52.076;5.110;2023-06-10T13:06:42;14;14;
72329;PMS5003;69154;52.076;5.110;2023-06-10T13:09:08;16;16;
72329;PMS5003;69154;52.076;5.110;2023-06-10T13:11:33;18;17;
72329;PMS5003;69154;52.076;5.110;2023-06-10T13:13:58;17;16;
72329;PMS5003;69154;52.076;5.110;2023-06-10T13:16:23;17;16;
72329;PMS5003;69154;52.076;5.110;2023-06-10T13:18:49;16;16;
72329;PMS5003;69154;52.076;5.110;2023-06-10T13:21:14;16;16;
72329;PMS5003;69154;52.076;5.110;2023-06-10T13:23:39;15;15;
72329;PMS5003;69154;52.076;5.110;2023-06-10T13:26:04;15;15;
72329;PMS5003;69154;52.076;5.110;2023-06-10T13:28:30;16;16;
72329;PMS5003;69154;52.076;5.110;2023-06-10T13:30:56;14;13;
72329;PMS5003;69154;52.076;5.110;2023-06-10T13:33:21;15;15;
72329;PMS5003;69154;52.076;5.110;2023-06-10T13:35:46;17;16;
72329;PMS5003;69154;52.076;5.110;2023-06-10T13:38:12;15;15;
72329;PMS5003;69154;52.076;5.110;2023-06-10T13:40:37;15;15;
72329;PMS5003;69154;52.076;5.110;2023-06-10T13:43:03;17;16;
72329;PMS5003;69154;52.076;5.110;2023-06-10T13:45:28;15;14;
72329;PMS5003;69154;52.076;5.110;2023-06-10T13:47:53;17;17;
72329;PMS5003;69154;52.076;5.110;2023-06-10T13:50:19;16;16;
72329;PMS5003;69154;52.076;5.110;2023-06-10T13:52:44;17;17;
72329;PMS5003;69154;52.076;5.110;2023-06-10T13:55:09;17;17;
72329;PMS5003;69154;52.076;5.110;2023-06-10T13:57:35;14;14;
72329;PMS5003;69154;52.076;5.110;2023-06-10T14:00:00;19;19;
72329;PMS5003;69154;52.076;5.110;2023-06-10T14:02:26;16;16;
72329;PMS5003;69154;52.076;5.110;2023-06-10T14:04:51;15;15;
72329;PMS5003;69154;52.076;5.110;2023-06-10T14:07:16;16;16;
72329;PMS5003;69154;52.076;5.110;2023-06-10T14:09:42;14;14;
72329;PMS5003;69154;52.076;5.110;2023-06-10T14:12:07;17;17;
72329;PMS5003;69154;52.076;5.110;2023-06-10T14:14:32;17;17;
72329;PMS5003;69154;52.076;5.110;2023-06-10T14:16:57;17;17;
72329;PMS5003;69154;52.076;5.110;2023-06-10T14:19:23;19;18;
72329;PMS5003;69154;52.076;5.110;2023-06-10T14:21:48;17;17;
72329;PMS5003;69154;52.076;5.110;2023-06-10T14:24:13;17;17;
72329;PMS5003;69154;52.076;5.110;2023-06-10T14:26:39;18;17;
72329;PMS5003;69154;52.076;5.110;2023-06-10T14:29:04;16;15;
72329;PMS5003;69154;52.076;5.110;2023-06-10T14:31:29;16;16;
72329;PMS5003;69154;52.076;5.110;2023-06-10T14:33:54;16;16;
72329;PMS5003;69154;52.076;5.110;2023-06-10T14:36:20;19;19;
72329;PMS5003;69154;52.076;5.110;2023-06-10T14:38:46;18;18;
72329;PMS5003;69154;52.076;5.110;2023-06-10T14:41:11;16;16;
72329;PMS5003;69154;52.076;5.110;2023-06-10T14:43:36;21;20;
72329;PMS5003;69154;52.076;5.110;2023-06-10T14:46:01;15;15;
72329;PMS5003;69154;52.076;5.110;2023-06-10T14:48:26;19;18;
72329;PMS5003;69154;52.076;5.110;2023-06-10T14:50:52;18;18;
72329;PMS5003;69154;52.076;5.110;2023-06-10T14:53:17;18;18;
72329;PMS5003;69154;52.076;5.110;2023-06-10T14:55:43;16;16;
72329;PMS5003;69154;52.076;5.110;2023-06-10T14:58:08;19;19;
72329;PMS5003;69154;52.076;5.110;2023-06-10T15:00:33;18;18;
72329;PMS5003;69154;52.076;5.110;2023-06-10T15:02:58;18;18;
72329;PMS5003;69154;52.076;5.110;2023-06-10T15:05:24;18;18;
72329;PMS5003;69154;52.076;5.110;2023-06-10T15:07:50;16;16;
72329;PMS5003;69154;52.076;5.110;2023-06-10T15:10:15;18;18;
72329;PMS5003;69154;52.076;5.110;2023-06-10T15:12:40;17;17;
72329;PMS5003;69154;52.076;5.110;2023-06-10T15:15:06;16;15;
72329;PMS5003;69154;52.076;5.110;2023-06-10T15:17:31;15;15;
72329;PMS5003;69154;52.076;5.110;2023-06-10T15:19:56;16;16;
72329;PMS5003;69154;52.076;5.110;2023-06-10T15:22:22;20;19;
72329;PMS5003;69154;52.076;5.110;2023-06-10T15:24:47;21;19;
72329;PMS5003;69154;52.076;5.110;2023-06-10T15:27:13;17;17;
72329;PMS5003;69154;52.076;5.110;2023-06-10T15:29:38;16;16;
72329;PMS5003;69154;52.076;5.110;2023-06-10T15:32:03;16;15;
72329;PMS5003;69154;52.076;5.110;2023-06-10T15:34:28;17;16;
72329;PMS5003;69154;52.076;5.110;2023-06-10T15:36:54;17;17;
72329;PMS5003;69154;52.076;5.110;2023-06-10T15:39:19;19;18;
72329;PMS5003;69154;52.076;5.110;2023-06-10T15:41:44;16;15;
72329;PMS5003;69154;52.076;5.110;2023-06-10T15:44:10;18;17;
72329;PMS5003;69154;52.076;5.110;2023-06-10T15:46:35;16;16;
72329;PMS5003;69154;52.076;5.110;2023-06-10T15:49:00;16;15;
72329;PMS5003;69154;52.076;5.110;2023-06-10T15:51:25;15;14;
72329;PMS5003;69154;52.076;5.110;2023-06-10T15:53:51;16;15;
72329;PMS5003;69154;52.076;5.110;2023-06-10T15:56:17;17;17;
72329;PMS5003;69154;52.076;5.110;2023-06-10T15:58:42;16;16;
72329;PMS5003;69154;52.076;5.110;2023-06-10T16:01:07;16;15;
72329;PMS5003;69154;52.076;5.110;2023-06-10T16:03:33;15;15;
72329;PMS5003;69154;52.076;5.110;2023-06-10T16:05:58;13;13;